sensor_id;sensor_type;location;lat;lon;timestamp;temperature;humidity
13482;DHT22;6813;60.352;15.746;2023-10-08T00:00:04;4.70;99.90
13482;DHT22;6813;60.352;15.746;2023-10-08T00:02:50;4.70;99.90
13482;DHT22;6813;60.352;15.746;2023-10-08T00:05:15;4.70;99.90
13482;DHT22;6813;60.352;15.746;2023-10-08T00:07:42;4.90;99.90
13482;DHT22;6813;60.352;15.746;2023-10-08T00:10:09;5.00;99.90
13482;DHT22;6813;60.352;15.746;2023-10-08T00:12:34;5.00;99.90
13482;DHT22;6813;60.352;15.746;2023-10-08T00:15:00;4.90;99.90
13482;DHT22;6813;60.352;15.746;2023-10-08T00:17:26;4.90;99.90
13482;DHT22;6813;60.352;15.746;2023-10-08T00:19:52;4.70;99.90
13482;DHT22;6813;60.352;15.746;2023-10-08T00:22:18;4.80;99.90
13482;DHT22;6813;60.352;15.746;2023-10-08T00:24:44;4.80;99.90
13482;DHT22;6813;60.352;15.746;2023-10-08T00:27:15;4.90;99.90
13482;DHT22;6813;60.352;15.746;2023-10-08T00:29:43;4.90;99.90
13482;DHT22;6813;60.352;15.746;2023-10-08T00:32:09;4.90;99.90
13482;DHT22;6813;60.352;15.746;2023-10-08T00:34:39;4.90;99.90
13482;DHT22;6813;60.352;15.746;2023-10-08T00:37:07;4.90;99.90
13482;DHT22;6813;60.352;15.746;2023-10-08T00:39:37;4.90;99.90
13482;DHT22;6813;60.352;15.746;2023-10-08T00:42:05;4.80;99.90
13482;DHT22;6813;60.352;15.746;2023-10-08T00:44:33;4.70;99.90
13482;DHT22;6813;60.352;15.746;2023-10-08T00:47:05;4.80;99.90
13482;DHT22;6813;60.352;15.746;2023-10-08T00:49:32;4.70;99.90
13482;DHT22;6813;60.352;15.746;2023-10-08T00:52:06;4.80;99.90
13482;DHT22;6813;60.352;15.746;2023-10-08T00:54:34;4.80;99.90
13482;DHT22;6813;60.352;15.746;2023-10-08T00:57:35;4.70;99.90
13482;DHT22;6813;60.352;15.746;2023-10-08T01:00:04;4.70;99.90
13482;DHT22;6813;60.352;15.746;2023-10-08T01:02:43;4.70;99.90
13482;DHT22;6813;60.352;15.746;2023-10-08T01:05:14;4.80;99.90
13482;DHT22;6813;60.352;15.746;2023-10-08T01:07:42;4.80;99.90
13482;DHT22;6813;60.352;15.746;2023-10-08T01:10:10;4.90;99.90
13482;DHT22;6813;60.352;15.746;2023-10-08T01:12:39;4.80;99.90
13482;DHT22;6813;60.352;15.746;2023-10-08T01:15:29;4.80;99.90
13482;DHT22;6813;60.352;15.746;2023-10-08T01:17:56;4.70;99.90
13482;DHT22;6813;60.352;15.746;2023-10-08T01:20:41;4.70;99.90
13482;DHT22;6813;60.352;15.746;2023-10-08T01:23:12;4.70;99.90
13482;DHT22;6813;60.352;15.746;2023-10-08T01:25:47;4.60;99.90
13482;DHT22;6813;60.352;15.746;2023-10-08T01:28:18;4.70;99.90
13482;DHT22;6813;60.352;15.746;2023-10-08T01:30:58;4.70;99.90
13482;DHT22;6813;60.352;15.746;2023-10-08T01:33:26;4.70;99.90
13482;DHT22;6813;60.352;15.746;2023-10-08T01:35:56;4.60;99.90
13482;DHT22;6813;60.352;15.746;2023-10-08T01:38:32;4.60;99.90
13482;DHT22;6813;60.352;15.746;2023-10-08T01:41:00;4.50;99.90
13482;DHT22;6813;60.352;15.746;2023-10-08T01:43:31;4.50;99.90
13482;DHT22;6813;60.352;15.746;2023-10-08T01:45:56;4.50;99.90
13482;DHT22;6813;60.352;15.746;2023-10-08T01:48:22;4.60;99.90
13482;DHT22;6813;60.352;15.746;2023-10-08T01:50:59;4.50;99.90
13482;DHT22;6813;60.352;15.746;2023-10-08T01:53:27;4.50;99.90
13482;DHT22;6813;60.352;15.746;2023-10-08T01:55:53;4.30;99.90
13482;DHT22;6813;60.352;15.746;2023-10-08T01:58:21;4.30;99.90
13482;DHT22;6813;60.352;15.746;2023-10-08T02:00:48;4.40;99.90
13482;DHT22;6813;60.352;15.746;2023-10-08T02:03:16;4.50;99.90
13482;DHT22;6813;60.352;15.746;2023-10-08T02:05:44;4.50;99.90
13482;DHT22;6813;60.352;15.746;2023-10-08T02:08:11;4.40;99.90
13482;DHT22;6813;60.352;15.746;2023-10-08T02:10:38;4.40;99.90
13482;DHT22;6813;60.352;15.746;2023-10-08T02:13:05;4.40;99.90
13482;DHT22;6813;60.352;15.746;2023-10-08T02:15:31;4.30;99.90
13482;DHT22;6813;60.352;15.746;2023-10-08T02:17:57;4.30;99.90
13482;DHT22;6813;60.352;15.746;2023-10-08T02:20:24;4.20;99.90
13482;DHT22;6813;60.352;15.746;2023-10-08T02:22:49;4.30;99.90
13482;DHT22;6813;60.352;15.746;2023-10-08T02:25:16;4.30;99.90
13482;DHT22;6813;60.352;15.746;2023-10-08T02:27:42;4.30;99.90
13482;DHT22;6813;60.352;15.746;2023-10-08T02:30:08;4.40;99.90
13482;DHT22;6813;60.352;15.746;2023-10-08T02:32:35;4.40;99.90
13482;DHT22;6813;60.352;15.746;2023-10-08T02:35:02;4.40;99.90
13482;DHT22;6813;60.352;15.746;2023-10-08T02:37:28;4.30;99.90
13482;DHT22;6813;60.352;15.746;2023-10-08T02:39:54;4.30;99.90
13482;DHT22;6813;60.352;15.746;2023-10-08T02:42:20;4.30;99.90
13482;DHT22;6813;60.352;15.746;2023-10-08T02:44:47;4.40;99.90
13482;DHT22;6813;60.352;15.746;2023-10-08T02:47:13;4.30;99.90
13482;DHT22;6813;60.352;15.746;2023-10-08T02:49:40;4.30;99.90
13482;DHT22;6813;60.352;15.746;2023-10-08T02:52:06;4.30;99.90
13482;DHT22;6813;60.352;15.746;2023-10-08T02:54:34;4.30;99.90
13482;DHT22;6813;60.352;15.746;2023-10-08T02:57:02;4.20;99.90
13482;DHT22;6813;60.352;15.746;2023-10-08T02:59:36;4.20;99.90
13482;DHT22;6813;60.352;15.746;2023-10-08T03:02:10;4.00;99.90
13482;DHT22;6813;60.352;15.746;2023-10-08T03:04:43;4.00;99.90
13482;DHT22;6813;60.352;15.746;2023-10-08T03:07:14;4.10;99.90
13482;DHT22;6813;60.352;15.746;2023-10-08T03:09:57;4.10;99.90
13482;DHT22;6813;60.352;15.746;2023-10-08T03:12:29;4.20;99.90
13482;DHT22;6813;60.352;15.746;2023-10-08T03:15:02;4.20;99.90
13482;DHT22;6813;60.352;15.746;2023-10-08T03:17:48;4.10;99.90
13482;DHT22;6813;60.352;15.746;2023-10-08T03:20:20;4.20;99.90
13482;DHT22;6813;60.352;15.746;2023-10-08T03:23:03;4.30;99.90
13482;DHT22;6813;60.352;15.746;2023-10-08T03:25:32;4.30;99.90
13482;DHT22;6813;60.352;15.746;2023-10-08T03:28:09;4.40;99.90
13482;DHT22;6813;60.352;15.746;2023-10-08T03:30:38;4.50;99.90
13482;DHT22;6813;60.352;15.746;2023-10-08T03:33:13;4.50;99.90
13482;DHT22;6813;60.352;15.746;2023-10-08T03:35:48;4.50;99.90
13482;DHT22;6813;60.352;15.746;2023-10-08T03:38:14;4.50;99.90
13482;DHT22;6813;60.352;15.746;2023-10-08T03:41:10;4.50;99.90
13482;DHT22;6813;60.352;15.746;2023-10-08T03:43:42;4.40;99.90
13482;DHT22;6813;60.352;15.746;2023-10-08T03:46:20;4.40;99.90
13482;DHT22;6813;60.352;15.746;2023-10-08T03:48:47;4.30;99.90
13482;DHT22;6813;60.352;15.746;2023-10-08T03:51:16;4.30;99.90
13482;DHT22;6813;60.352;15.746;2023-10-08T03:53:45;4.40;99.90
13482;DHT22;6813;60.352;15.746;2023-10-08T03:56:28;4.40;99.90
13482;DHT22;6813;60.352;15.746;2023-10-08T03:58:57;4.60;99.90
13482;DHT22;6813;60.352;15.746;2023-10-08T04:01:28;4.50;99.90
13482;DHT22;6813;60.352;15.746;2023-10-08T04:03:58;4.60;99.90
13482;DHT22;6813;60.352;15.746;2023-10-08T04:06:26;4.60;99.90
13482;DHT22;6813;60.352;15.746;2023-10-08T04:09:00;4.70;99.90
13482;DHT22;6813;60.352;15.746;2023-10-08T04:11:36;4.70;99.90
13482;DHT22;6813;60.352;15.746;2023-10-08T04:14:27;4.80;99.90
13482;DHT22;6813;60.352;15.746;2023-10-08T04:16:53;4.80;99.90
13482;DHT22;6813;60.352;15.746;2023-10-08T04:19:21;4.80;99.90
13482;DHT22;6813;60.352;15.746;2023-10-08T04:21:55;4.80;99.90
13482;DHT22;6813;60.352;15.746;2023-10-08T04:24:26;4.80;99.90
13482;DHT22;6813;60.352;15.746;2023-10-08T04:27:00;4.70;99.90
13482;DHT22;6813;60.352;15.746;2023-10-08T04:29:28;4.80;99.90
13482;DHT22;6813;60.352;15.746;2023-10-08T04:31:59;4.80;99.90
13482;DHT22;6813;60.352;15.746;2023-10-08T04:34:33;4.80;99.90
13482;DHT22;6813;60.352;15.746;2023-10-08T04:36:59;4.90;99.90
13482;DHT22;6813;60.352;15.746;2023-10-08T04:39:29;4.90;99.90
13482;DHT22;6813;60.352;15.746;2023-10-08T04:41:59;4.90;99.90
13482;DHT22;6813;60.352;15.746;2023-10-08T04:44:31;4.90;99.90
13482;DHT22;6813;60.352;15.746;2023-10-08T04:46:57;4.80;99.90
13482;DHT22;6813;60.352;15.746;2023-10-08T04:49:30;4.80;99.90
13482;DHT22;6813;60.352;15.746;2023-10-08T04:52:02;4.70;99.90
13482;DHT22;6813;60.352;15.746;2023-10-08T04:54:40;4.70;99.90
13482;DHT22;6813;60.352;15.746;2023-10-08T04:57:07;4.70;99.90
13482;DHT22;6813;60.352;15.746;2023-10-08T04:59:41;4.60;99.90
13482;DHT22;6813;60.352;15.746;2023-10-08T05:02:07;4.50;99.90
13482;DHT22;6813;60.352;15.746;2023-10-08T05:04:51;4.50;99.90
13482;DHT22;6813;60.352;15.746;2023-10-08T05:07:18;4.60;99.90
13482;DHT22;6813;60.352;15.746;2023-10-08T05:09:47;4.50;99.90
13482;DHT22;6813;60.352;15.746;2023-10-08T05:12:28;4.40;99.90
13482;DHT22;6813;60.352;15.746;2023-10-08T05:15:00;4.40;99.90
13482;DHT22;6813;60.352;15.746;2023-10-08T05:17:38;4.40;99.90
13482;DHT22;6813;60.352;15.746;2023-10-08T05:20:17;4.50;99.90
13482;DHT22;6813;60.352;15.746;2023-10-08T05:23:13;4.50;99.90
13482;DHT22;6813;60.352;15.746;2023-10-08T05:25:55;4.50;99.90
13482;DHT22;6813;60.352;15.746;2023-10-08T05:28:31;4.50;99.90
13482;DHT22;6813;60.352;15.746;2023-10-08T05:31:10;4.50;99.90
13482;DHT22;6813;60.352;15.746;2023-10-08T05:33:39;4.50;99.90
13482;DHT22;6813;60.352;15.746;2023-10-08T05:36:25;4.50;99.90
13482;DHT22;6813;60.352;15.746;2023-10-08T05:39:02;4.50;99.90
13482;DHT22;6813;60.352;15.746;2023-10-08T05:41:44;4.50;99.90
13482;DHT22;6813;60.352;15.746;2023-10-08T05:44:28;4.50;99.90
13482;DHT22;6813;60.352;15.746;2023-10-08T05:47:05;4.50;99.90
13482;DHT22;6813;60.352;15.746;2023-10-08T05:49:50;4.50;99.90
13482;DHT22;6813;60.352;15.746;2023-10-08T05:52:34;4.60;99.90
13482;DHT22;6813;60.352;15.746;2023-10-08T05:55:19;4.70;99.90
13482;DHT22;6813;60.352;15.746;2023-10-08T05:57:58;4.80;99.90
13482;DHT22;6813;60.352;15.746;2023-10-08T06:00:46;4.90;99.90
13482;DHT22;6813;60.352;15.746;2023-10-08T06:03:31;5.10;99.90
13482;DHT22;6813;60.352;15.746;2023-10-08T06:06:23;5.00;99.90
13482;DHT22;6813;60.352;15.746;2023-10-08T06:08:51;5.10;99.90
13482;DHT22;6813;60.352;15.746;2023-10-08T06:11:47;5.20;99.90
13482;DHT22;6813;60.352;15.746;2023-10-08T06:14:33;5.20;99.90
13482;DHT22;6813;60.352;15.746;2023-10-08T06:17:18;5.40;99.90
13482;DHT22;6813;60.352;15.746;2023-10-08T06:20:01;5.60;99.90
13482;DHT22;6813;60.352;15.746;2023-10-08T06:22:35;5.70;99.90
13482;DHT22;6813;60.352;15.746;2023-10-08T06:25:01;5.90;99.90
13482;DHT22;6813;60.352;15.746;2023-10-08T06:27:41;6.10;99.90
13482;DHT22;6813;60.352;15.746;2023-10-08T06:30:07;6.40;99.90
13482;DHT22;6813;60.352;15.746;2023-10-08T06:32:45;6.60;99.90
13482;DHT22;6813;60.352;15.746;2023-10-08T06:35:11;6.80;99.90
13482;DHT22;6813;60.352;15.746;2023-10-08T06:37:44;7.00;99.90
13482;DHT22;6813;60.352;15.746;2023-10-08T06:40:11;7.20;99.90
13482;DHT22;6813;60.352;15.746;2023-10-08T06:43:16;7.50;99.90
13482;DHT22;6813;60.352;15.746;2023-10-08T06:45:51;7.80;99.90
13482;DHT22;6813;60.352;15.746;2023-10-08T06:48:24;8.20;99.90
13482;DHT22;6813;60.352;15.746;2023-10-08T06:50:50;8.50;99.90
13482;DHT22;6813;60.352;15.746;2023-10-08T06:53:17;8.80;99.90
13482;DHT22;6813;60.352;15.746;2023-10-08T06:55:47;8.90;99.60
13482;DHT22;6813;60.352;15.746;2023-10-08T06:58:23;9.20;99.90
13482;DHT22;6813;60.352;15.746;2023-10-08T07:00:49;9.40;99.60
13482;DHT22;6813;60.352;15.746;2023-10-08T07:03:16;9.60;98.90
13482;DHT22;6813;60.352;15.746;2023-10-08T07:05:47;9.80;98.90
13482;DHT22;6813;60.352;15.746;2023-10-08T07:08:30;10.10;97.90
13482;DHT22;6813;60.352;15.746;2023-10-08T07:11:02;10.20;97.30
13482;DHT22;6813;60.352;15.746;2023-10-08T07:13:32;10.40;97.30
13482;DHT22;6813;60.352;15.746;2023-10-08T07:15:58;10.50;96.70
13482;DHT22;6813;60.352;15.746;2023-10-08T07:18:25;10.60;96.20
13482;DHT22;6813;60.352;15.746;2023-10-08T07:20:55;10.90;96.70
13482;DHT22;6813;60.352;15.746;2023-10-08T07:23:26;11.10;96.10
13482;DHT22;6813;60.352;15.746;2023-10-08T07:25:58;11.30;95.50
13482;DHT22;6813;60.352;15.746;2023-10-08T07:28:44;11.30;95.00
13482;DHT22;6813;60.352;15.746;2023-10-08T07:31:18;11.30;94.70
13482;DHT22;6813;60.352;15.746;2023-10-08T07:33:48;11.20;94.70
13482;DHT22;6813;60.352;15.746;2023-10-08T07:36:13;11.30;94.60
13482;DHT22;6813;60.352;15.746;2023-10-08T07:38:44;11.20;95.10
13482;DHT22;6813;60.352;15.746;2023-10-08T07:41:13;11.40;96.30
13482;DHT22;6813;60.352;15.746;2023-10-08T07:43:43;11.40;93.90
13482;DHT22;6813;60.352;15.746;2023-10-08T07:46:09;11.40;94.90
13482;DHT22;6813;60.352;15.746;2023-10-08T07:48:36;11.50;93.50
13482;DHT22;6813;60.352;15.746;2023-10-08T07:51:03;11.40;93.50
13482;DHT22;6813;60.352;15.746;2023-10-08T07:53:29;11.30;94.70
13482;DHT22;6813;60.352;15.746;2023-10-08T07:56:05;11.20;93.50
13482;DHT22;6813;60.352;15.746;2023-10-08T07:58:32;11.10;94.10
13482;DHT22;6813;60.352;15.746;2023-10-08T08:01:03;11.20;95.00
13482;DHT22;6813;60.352;15.746;2023-10-08T08:03:32;11.40;94.10
13482;DHT22;6813;60.352;15.746;2023-10-08T08:06:00;11.50;94.50
13482;DHT22;6813;60.352;15.746;2023-10-08T08:08:26;11.50;94.40
13482;DHT22;6813;60.352;15.746;2023-10-08T08:10:53;11.60;93.80
13482;DHT22;6813;60.352;15.746;2023-10-08T08:13:31;11.60;92.80
13482;DHT22;6813;60.352;15.746;2023-10-08T08:15:59;11.70;94.50
13482;DHT22;6813;60.352;15.746;2023-10-08T08:18:38;11.60;92.80
13482;DHT22;6813;60.352;15.746;2023-10-08T08:21:08;11.60;92.90
13482;DHT22;6813;60.352;15.746;2023-10-08T08:23:39;11.40;94.30
13482;DHT22;6813;60.352;15.746;2023-10-08T08:26:05;11.30;93.10
13482;DHT22;6813;60.352;15.746;2023-10-08T08:28:31;11.40;94.10
13482;DHT22;6813;60.352;15.746;2023-10-08T08:31:05;11.50;93.30
13482;DHT22;6813;60.352;15.746;2023-10-08T08:33:40;11.40;93.20
13482;DHT22;6813;60.352;15.746;2023-10-08T08:36:24;11.30;94.90
13482;DHT22;6813;60.352;15.746;2023-10-08T08:38:50;11.40;92.70
13482;DHT22;6813;60.352;15.746;2023-10-08T08:41:16;11.40;92.70
13482;DHT22;6813;60.352;15.746;2023-10-08T08:43:51;11.40;94.30
13482;DHT22;6813;60.352;15.746;2023-10-08T08:46:31;11.40;93.70
13482;DHT22;6813;60.352;15.746;2023-10-08T08:49:07;11.50;93.70
13482;DHT22;6813;60.352;15.746;2023-10-08T08:51:37;11.50;93.70
13482;DHT22;6813;60.352;15.746;2023-10-08T08:54:03;11.60;93.30
13482;DHT22;6813;60.352;15.746;2023-10-08T08:56:38;11.70;92.10
13482;DHT22;6813;60.352;15.746;2023-10-08T08:59:07;11.70;93.20
13482;DHT22;6813;60.352;15.746;2023-10-08T09:01:40;11.70;93.90
13482;DHT22;6813;60.352;15.746;2023-10-08T09:04:07;11.80;93.00
13482;DHT22;6813;60.352;15.746;2023-10-08T09:06:34;11.80;93.00
13482;DHT22;6813;60.352;15.746;2023-10-08T09:09:01;11.80;92.30
13482;DHT22;6813;60.352;15.746;2023-10-08T09:11:45;11.80;93.60
13482;DHT22;6813;60.352;15.746;2023-10-08T09:14:11;11.90;92.60
13482;DHT22;6813;60.352;15.746;2023-10-08T09:16:37;12.00;93.80
13482;DHT22;6813;60.352;15.746;2023-10-08T09:19:03;12.00;92.90
13482;DHT22;6813;60.352;15.746;2023-10-08T09:21:30;11.80;92.90
13482;DHT22;6813;60.352;15.746;2023-10-08T09:23:56;11.70;93.80
13482;DHT22;6813;60.352;15.746;2023-10-08T09:26:25;11.70;92.00
13482;DHT22;6813;60.352;15.746;2023-10-08T09:28:54;11.70;92.90
13482;DHT22;6813;60.352;15.746;2023-10-08T09:31:23;11.70;92.10
13482;DHT22;6813;60.352;15.746;2023-10-08T09:33:56;11.80;93.00
13482;DHT22;6813;60.352;15.746;2023-10-08T09:36:22;11.90;92.30
13482;DHT22;6813;60.352;15.746;2023-10-08T09:39:02;12.00;92.80
13482;DHT22;6813;60.352;15.746;2023-10-08T09:41:32;12.00;92.50
13482;DHT22;6813;60.352;15.746;2023-10-08T09:44:01;12.00;92.50
13482;DHT22;6813;60.352;15.746;2023-10-08T09:46:31;12.10;92.90
13482;DHT22;6813;60.352;15.746;2023-10-08T09:49:03;12.20;92.10
13482;DHT22;6813;60.352;15.746;2023-10-08T09:51:34;12.00;92.10
13482;DHT22;6813;60.352;15.746;2023-10-08T09:54:11;11.90;92.50
13482;DHT22;6813;60.352;15.746;2023-10-08T09:56:41;12.00;93.00
13482;DHT22;6813;60.352;15.746;2023-10-08T09:59:09;12.00;92.60
13482;DHT22;6813;60.352;15.746;2023-10-08T10:01:37;12.00;91.70
13482;DHT22;6813;60.352;15.746;2023-10-08T10:04:22;12.10;91.80
13482;DHT22;6813;60.352;15.746;2023-10-08T10:06:51;12.20;91.30
13482;DHT22;6813;60.352;15.746;2023-10-08T10:09:21;12.10;91.00
13482;DHT22;6813;60.352;15.746;2023-10-08T10:11:51;12.10;91.80
13482;DHT22;6813;60.352;15.746;2023-10-08T10:14:22;12.20;92.40
13482;DHT22;6813;60.352;15.746;2023-10-08T10:17:12;12.20;92.50
13482;DHT22;6813;60.352;15.746;2023-10-08T10:19:40;12.20;92.60
13482;DHT22;6813;60.352;15.746;2023-10-08T10:22:13;12.20;91.90
13482;DHT22;6813;60.352;15.746;2023-10-08T10:24:41;12.40;92.40
13482;DHT22;6813;60.352;15.746;2023-10-08T10:27:14;12.40;90.60
13482;DHT22;6813;60.352;15.746;2023-10-08T10:29:44;12.40;91.70
13482;DHT22;6813;60.352;15.746;2023-10-08T10:32:12;12.50;93.00
13482;DHT22;6813;60.352;15.746;2023-10-08T10:34:41;12.50;91.10
13482;DHT22;6813;60.352;15.746;2023-10-08T10:37:07;12.60;92.30
13482;DHT22;6813;60.352;15.746;2023-10-08T10:39:55;12.40;91.10
13482;DHT22;6813;60.352;15.746;2023-10-08T10:42:25;12.40;91.30
13482;DHT22;6813;60.352;15.746;2023-10-08T10:44:52;12.50;91.30
13482;DHT22;6813;60.352;15.746;2023-10-08T10:47:21;12.60;92.40
13482;DHT22;6813;60.352;15.746;2023-10-08T10:49:48;12.50;90.60
13482;DHT22;6813;60.352;15.746;2023-10-08T10:52:24;12.60;91.20
13482;DHT22;6813;60.352;15.746;2023-10-08T10:55:08;12.50;90.50
13482;DHT22;6813;60.352;15.746;2023-10-08T10:57:48;12.60;92.20
13482;DHT22;6813;60.352;15.746;2023-10-08T11:00:24;12.60;92.80
13482;DHT22;6813;60.352;15.746;2023-10-08T11:03:01;12.60;92.70
13482;DHT22;6813;60.352;15.746;2023-10-08T11:05:42;12.60;92.10
13482;DHT22;6813;60.352;15.746;2023-10-08T11:08:15;12.50;91.30
13482;DHT22;6813;60.352;15.746;2023-10-08T11:10:44;12.60;91.70
13482;DHT22;6813;60.352;15.746;2023-10-08T11:13:16;12.60;90.80
13482;DHT22;6813;60.352;15.746;2023-10-08T11:15:44;12.50;92.00
13482;DHT22;6813;60.352;15.746;2023-10-08T11:18:19;12.40;90.30
13482;DHT22;6813;60.352;15.746;2023-10-08T11:20:48;12.30;91.00
13482;DHT22;6813;60.352;15.746;2023-10-08T11:23:33;12.20;91.70
13482;DHT22;6813;60.352;15.746;2023-10-08T11:26:00;12.10;92.10
13482;DHT22;6813;60.352;15.746;2023-10-08T11:28:31;12.10;91.90
13482;DHT22;6813;60.352;15.746;2023-10-08T11:31:06;12.00;90.10
13482;DHT22;6813;60.352;15.746;2023-10-08T11:33:39;11.90;91.20
13482;DHT22;6813;60.352;15.746;2023-10-08T11:36:07;11.80;93.80
13482;DHT22;6813;60.352;15.746;2023-10-08T11:38:44;11.80;93.10
13482;DHT22;6813;60.352;15.746;2023-10-08T11:41:14;11.80;92.90
13482;DHT22;6813;60.352;15.746;2023-10-08T11:43:50;11.80;93.40
13482;DHT22;6813;60.352;15.746;2023-10-08T11:46:29;11.60;89.30
13482;DHT22;6813;60.352;15.746;2023-10-08T11:49:08;11.60;92.30
13482;DHT22;6813;60.352;15.746;2023-10-08T11:51:43;11.60;90.70
13482;DHT22;6813;60.352;15.746;2023-10-08T11:54:09;11.40;90.60
13482;DHT22;6813;60.352;15.746;2023-10-08T11:56:38;11.40;90.60
13482;DHT22;6813;60.352;15.746;2023-10-08T11:59:05;11.30;89.60
13482;DHT22;6813;60.352;15.746;2023-10-08T12:01:35;11.10;90.00
13482;DHT22;6813;60.352;15.746;2023-10-08T12:04:02;11.10;91.00
13482;DHT22;6813;60.352;15.746;2023-10-08T12:06:28;10.90;89.90
13482;DHT22;6813;60.352;15.746;2023-10-08T12:08:58;11.00;92.30
13482;DHT22;6813;60.352;15.746;2023-10-08T12:11:25;11.20;93.30
13482;DHT22;6813;60.352;15.746;2023-10-08T12:14:00;11.30;93.20
13482;DHT22;6813;60.352;15.746;2023-10-08T12:16:26;11.30;90.20
13482;DHT22;6813;60.352;15.746;2023-10-08T12:18:56;11.10;89.40
13482;DHT22;6813;60.352;15.746;2023-10-08T12:21:28;11.30;92.30
13482;DHT22;6813;60.352;15.746;2023-10-08T12:23:57;11.40;92.70
13482;DHT22;6813;60.352;15.746;2023-10-08T12:26:23;11.60;92.00
13482;DHT22;6813;60.352;15.746;2023-10-08T12:28:49;11.60;88.60
13482;DHT22;6813;60.352;15.746;2023-10-08T12:31:16;11.70;90.70
13482;DHT22;6813;60.352;15.746;2023-10-08T12:33:42;11.70;90.70
13482;DHT22;6813;60.352;15.746;2023-10-08T12:36:11;11.60;88.20
13482;DHT22;6813;60.352;15.746;2023-10-08T12:38:38;11.40;88.90
13482;DHT22;6813;60.352;15.746;2023-10-08T12:41:03;11.20;89.90
13482;DHT22;6813;60.352;15.746;2023-10-08T12:43:40;11.20;90.10
13482;DHT22;6813;60.352;15.746;2023-10-08T12:46:18;11.10;91.20
13482;DHT22;6813;60.352;15.746;2023-10-08T12:48:45;11.30;91.30
13482;DHT22;6813;60.352;15.746;2023-10-08T12:51:16;11.20;90.70
13482;DHT22;6813;60.352;15.746;2023-10-08T12:53:43;11.20;90.90
13482;DHT22;6813;60.352;15.746;2023-10-08T12:56:16;11.20;91.50
13482;DHT22;6813;60.352;15.746;2023-10-08T12:58:46;11.40;93.80
13482;DHT22;6813;60.352;15.746;2023-10-08T13:01:15;11.50;93.90
13482;DHT22;6813;60.352;15.746;2023-10-08T13:03:44;11.50;92.60
13482;DHT22;6813;60.352;15.746;2023-10-08T13:06:20;11.50;93.20
13482;DHT22;6813;60.352;15.746;2023-10-08T13:08:54;11.50;91.20
13482;DHT22;6813;60.352;15.746;2023-10-08T13:11:21;11.40;90.30
13482;DHT22;6813;60.352;15.746;2023-10-08T13:13:53;11.30;92.00
13482;DHT22;6813;60.352;15.746;2023-10-08T13:16:22;11.10;90.40
13482;DHT22;6813;60.352;15.746;2023-10-08T13:18:49;11.00;91.10
13482;DHT22;6813;60.352;15.746;2023-10-08T13:21:15;11.10;90.40
13482;DHT22;6813;60.352;15.746;2023-10-08T13:23:41;11.00;91.00
13482;DHT22;6813;60.352;15.746;2023-10-08T13:26:08;10.80;89.80
13482;DHT22;6813;60.352;15.746;2023-10-08T13:28:35;10.80;90.80
13482;DHT22;6813;60.352;15.746;2023-10-08T13:31:03;10.70;90.00
13482;DHT22;6813;60.352;15.746;2023-10-08T13:33:39;10.60;90.00
13482;DHT22;6813;60.352;15.746;2023-10-08T13:36:09;10.70;93.90
13482;DHT22;6813;60.352;15.746;2023-10-08T13:38:38;10.70;91.00
13482;DHT22;6813;60.352;15.746;2023-10-08T13:41:06;10.60;91.30
13482;DHT22;6813;60.352;15.746;2023-10-08T13:43:41;10.50;90.30
13482;DHT22;6813;60.352;15.746;2023-10-08T13:46:07;10.60;92.30
13482;DHT22;6813;60.352;15.746;2023-10-08T13:48:38;10.60;90.20
13482;DHT22;6813;60.352;15.746;2023-10-08T13:51:05;10.70;91.70
13482;DHT22;6813;60.352;15.746;2023-10-08T13:53:36;10.50;90.00
13482;DHT22;6813;60.352;15.746;2023-10-08T13:56:03;10.60;90.70
13482;DHT22;6813;60.352;15.746;2023-10-08T13:58:33;10.60;90.30
13482;DHT22;6813;60.352;15.746;2023-10-08T14:01:06;10.50;90.60
13482;DHT22;6813;60.352;15.746;2023-10-08T14:03:53;10.60;91.50
13482;DHT22;6813;60.352;15.746;2023-10-08T14:06:21;10.60;90.90
13482;DHT22;6813;60.352;15.746;2023-10-08T14:08:48;10.50;89.90
13482;DHT22;6813;60.352;15.746;2023-10-08T14:11:20;10.40;91.20
13482;DHT22;6813;60.352;15.746;2023-10-08T14:13:52;10.40;90.10
13482;DHT22;6813;60.352;15.746;2023-10-08T14:16:19;10.30;90.50
13482;DHT22;6813;60.352;15.746;2023-10-08T14:18:50;10.40;91.40
13482;DHT22;6813;60.352;15.746;2023-10-08T14:21:22;10.40;92.20
13482;DHT22;6813;60.352;15.746;2023-10-08T14:23:59;10.40;89.60
13482;DHT22;6813;60.352;15.746;2023-10-08T14:26:29;10.30;90.10
13482;DHT22;6813;60.352;15.746;2023-10-08T14:29:00;10.30;92.50
13482;DHT22;6813;60.352;15.746;2023-10-08T14:31:33;10.20;90.00
13482;DHT22;6813;60.352;15.746;2023-10-08T14:33:59;10.20;90.70
13482;DHT22;6813;60.352;15.746;2023-10-08T14:36:38;10.30;88.90
13482;DHT22;6813;60.352;15.746;2023-10-08T14:39:22;10.10;89.90
13482;DHT22;6813;60.352;15.746;2023-10-08T14:42:06;10.10;90.00
13482;DHT22;6813;60.352;15.746;2023-10-08T14:44:50;10.10;90.80
13482;DHT22;6813;60.352;15.746;2023-10-08T14:47:16;9.90;91.00
13482;DHT22;6813;60.352;15.746;2023-10-08T14:49:42;9.90;90.40
13482;DHT22;6813;60.352;15.746;2023-10-08T14:52:09;9.80;90.60
13482;DHT22;6813;60.352;15.746;2023-10-08T14:54:34;9.80;90.70
13482;DHT22;6813;60.352;15.746;2023-10-08T14:57:00;9.80;90.50
13482;DHT22;6813;60.352;15.746;2023-10-08T14:59:28;9.70;91.30
13482;DHT22;6813;60.352;15.746;2023-10-08T15:01:56;9.60;90.90
13482;DHT22;6813;60.352;15.746;2023-10-08T15:04:22;9.60;91.00
13482;DHT22;6813;60.352;15.746;2023-10-08T15:06:48;9.50;91.00
13482;DHT22;6813;60.352;15.746;2023-10-08T15:09:15;9.50;91.80
13482;DHT22;6813;60.352;15.746;2023-10-08T15:11:48;9.40;91.00
13482;DHT22;6813;60.352;15.746;2023-10-08T15:14:13;9.60;92.70
13482;DHT22;6813;60.352;15.746;2023-10-08T15:16:41;9.70;93.00
13482;DHT22;6813;60.352;15.746;2023-10-08T15:19:09;9.80;91.70
13482;DHT22;6813;60.352;15.746;2023-10-08T15:21:38;9.70;91.80
13482;DHT22;6813;60.352;15.746;2023-10-08T15:24:05;9.60;90.70
13482;DHT22;6813;60.352;15.746;2023-10-08T15:26:36;9.50;91.30
13482;DHT22;6813;60.352;15.746;2023-10-08T15:29:02;9.40;91.20
13482;DHT22;6813;60.352;15.746;2023-10-08T15:31:28;9.40;91.70
13482;DHT22;6813;60.352;15.746;2023-10-08T15:33:54;9.50;92.00
13482;DHT22;6813;60.352;15.746;2023-10-08T15:36:19;9.50;91.80
13482;DHT22;6813;60.352;15.746;2023-10-08T15:38:45;9.60;91.90
13482;DHT22;6813;60.352;15.746;2023-10-08T15:41:11;9.50;91.50
13482;DHT22;6813;60.352;15.746;2023-10-08T15:43:39;9.50;91.00
13482;DHT22;6813;60.352;15.746;2023-10-08T15:46:05;9.30;90.90
13482;DHT22;6813;60.352;15.746;2023-10-08T15:48:31;9.20;91.00
13482;DHT22;6813;60.352;15.746;2023-10-08T15:50:59;9.00;90.80
13482;DHT22;6813;60.352;15.746;2023-10-08T15:53:25;9.10;91.30
13482;DHT22;6813;60.352;15.746;2023-10-08T15:55:51;8.90;90.90
13482;DHT22;6813;60.352;15.746;2023-10-08T15:58:17;9.00;91.80
13482;DHT22;6813;60.352;15.746;2023-10-08T16:00:42;8.90;91.30
13482;DHT22;6813;60.352;15.746;2023-10-08T16:03:08;8.90;92.60
13482;DHT22;6813;60.352;15.746;2023-10-08T16:05:35;8.60;91.60